• Join FlightAware (Why Join?)
  • Login
  • US Flag 
07:40AM EDT


 

Airport Tracker/Info


-or-


 

Live Flight TrackerFlight Track Log ✈ DAL6034 ✈ 15-Apr-2013 ✈ KMHT - KLGA

Flight Track Log - Related Links

Times and Time Zones

All times are in EDT time to prevent confusion due to time zone crossing. See the DAL6034 flight status page for this flight to view local times or setup timezone preferences in your user account.

Time Position Orientation Groundspeed Altitude Reporting Facility
EDT Latitude Longitude Course Direction KTS MPH feet Rate Location/Type
05:09PM 42.9167 -71.4667 270° West 164 189 1,700  Level KA90
05:10PM 42.8906 -71.5192 236° Southwest 158 182 3,200 1,800 Climbing Boston Center
05:11PM 42.9408 -71.5353 347° North 270 311 5,000 2,100 Climbing Boston Center
05:12PM 42.9753 -71.4269 66° East 377 434 8,000 2,460 Climbing Boston Center
05:13PM 43.0033 -71.3186 70° East 315 362 10,400 1,980 Climbing Boston Center
05:14PM 43.0336 -71.2072 70° East 293 337 12,000 1,380 Climbing Boston Center
05:15PM 43.0656 -71.0931 69° East 304 350 13,200 1,320 Climbing Boston Center
05:16PM 43.0619 -70.9739 92° East 324 373 14,700 1,620 Climbing Boston Center
05:17PM 42.9714 -70.8964 148° Southeast 310 357 16,500 1,620 Climbing Boston Center
05:18PM 42.8864 -70.9297 196° South 301 346 18,000 1,440 Climbing Boston Center
05:20PM 42.6981 -71.0219 200° South 346 398 20,900 1,380 Climbing Boston Center
05:21PM 42.6025 -71.0692 200° South 351 404 22,200 1,140 Climbing Boston Center
05:22PM 42.5094 -71.1247 204° Southwest 357 411 23,200 840 Climbing Boston Center
05:23PM 42.4544 -71.2442 238° Southwest 358 412 24,000 360 Climbing Boston Center
05:24PM 42.4142 -71.3686 246° West 381 438 24,000 -120 Level Boston Center
05:25PM 42.3675 -71.5072 246° West 399 459 23,800 -600 Descending Boston Center
05:26PM 42.3142 -71.6400 242° Southwest 404 465 22,900 -960 Descending Boston Center
05:27PM 42.2672 -71.7781 245° Southwest 409 471 21,900 -1,020 Descending Boston Center
05:28PM 42.2178 -71.9131 244° Southwest 409 471 20,900 -1,020 Descending Boston Center
05:29PM 42.1706 -72.0508 245° Southwest 404 465 19,900 -1,200 Descending Boston Center
05:30PM 42.1189 -72.1911 244° Southwest 396 456 18,600 -1,140 Descending Boston Center
05:31PM 42.0772 -72.3086 244° Southwest 385 443 17,500 -1,140 Descending Boston Center
05:32PM 42.0253 -72.4569 245° Southwest 385 443 16,100 -780 Descending Boston Center
05:33PM 41.9772 -72.5908 244° Southwest 366 421 16,000 -180 Descending Boston Center
05:34PM 41.9375 -72.7025 244° Southwest 366 421 15,800 -720 Descending Boston Center
05:35PM 41.8869 -72.8194 240° Southwest 366 421 14,600 -900 Descending Boston Center
05:36PM 41.8386 -72.9333 240° Southwest 366 421 14,000 -360 Descending Boston Center
05:37PM 41.7944 -73.0444 242° Southwest 357 411 14,000  Level Boston Center
05:38PM 41.7417 -73.1692 240° Southwest 355 409 14,000  Level Boston Center
05:39PM 41.6969 -73.2769 241° Southwest 361 415 14,000 -480 Level Boston Center
05:40PM 41.6336 -73.3761 230° Southwest 356 410 13,100 -1,020 Descending Boston Center
05:41PM 41.5642 -73.4778 228° Southwest 352 405 12,000 -1,020 Descending Boston Center
05:42PM 41.5156 -73.5464 227° Southwest 309 356 11,100 -1,020 Descending Boston Center
05:44PM 41.4333 -73.6667 228° Southwest 269 310 9,700 -1,020 Descending New York TRACON
05:45PM 41.3667 -73.6667 180° South 276 318 8,700 -1,020 Descending New York TRACON
05:46PM 41.3000 -73.6500 169° South 259 298 7,700 -900 Descending New York TRACON
05:47PM 41.2333 -73.6167 159° South 254 292 7,000 -360 Descending New York TRACON
05:48PM 41.1667 -73.6000 169° South 261 300 7,000 -540 Level New York TRACON
05:49PM 41.1000 -73.6000 180° South 249 287 6,000 -1,020 Descending New York TRACON
05:50PM 41.0500 -73.6500 217° Southwest 240 276 5,000 -960 Descending New York TRACON
05:51PM 40.9833 -73.7000 210° Southwest 230 265 4,100 -720 Descending New York TRACON
05:52PM 40.9333 -73.7500 217° Southwest 223 257 3,600 -840 Descending New York TRACON
05:53PM 40.8833 -73.8000 217° Southwest 201 231 2,400 -1,080 Descending New York TRACON
05:54PM 40.8500 -73.8167 201° Southwest 159 183 1,500 -900 Descending New York TRACON
05:55PM 40.8167 -73.8500 217° Southwest 137 158 800 -720 Descending New York TRACON
05:57PM 40.7772 -73.8726 180° South  Level Estimated
06:04PM 40.7772 -73.8726 180° South  Level Estimated
06:05PM 40.7772 -73.8726 180° South  Level Estimated